createdAt,value
2019-02-18T00:00:47.849Z,2.44
2019-02-18T00:02:55.150Z,2.44
2019-02-18T00:05:02.286Z,2.42
2019-02-18T00:07:14.562Z,2.37
2019-02-18T00:09:18.337Z,2.36
2019-02-18T00:11:25.298Z,2.33
2019-02-18T00:13:32.250Z,2.34
2019-02-18T00:15:39.233Z,2.32
2019-02-18T00:17:46.137Z,2.31
2019-02-18T00:19:53.469Z,2.30
2019-02-18T00:22:00.797Z,2.29
2019-02-18T00:24:08.678Z,2.26
2019-02-18T00:26:15.236Z,2.25
2019-02-18T00:28:22.856Z,2.24
2019-02-18T00:30:29.909Z,2.23
2019-02-18T00:32:36.787Z,2.20
2019-02-18T00:34:43.990Z,2.16
2019-02-18T00:36:50.912Z,2.13
2019-02-18T00:38:59.145Z,2.08
2019-02-18T00:41:06.119Z,2.05
2019-02-18T00:43:13.094Z,2.01
2019-02-18T00:45:21.179Z,1.96
2019-02-18T00:47:28.107Z,1.91
2019-02-18T00:49:35.165Z,1.83
2019-02-18T00:51:42.589Z,1.80
2019-02-18T00:53:50.116Z,1.76
2019-02-18T00:55:57.190Z,1.72
2019-02-18T00:58:05.789Z,1.67
2019-02-18T01:00:16.680Z,1.63
2019-02-18T01:02:23.532Z,1.58
2019-02-18T01:04:30.911Z,1.55
2019-02-18T01:06:37.821Z,1.56
2019-02-18T01:08:44.580Z,1.54
2019-02-18T01:10:51.758Z,1.55
2019-02-18T01:12:58.828Z,1.55
2019-02-18T01:15:08.282Z,1.54
2019-02-18T01:17:17.170Z,1.54
2019-02-18T01:19:24.148Z,1.51
2019-02-18T01:21:31.192Z,1.50
2019-02-18T01:23:41.621Z,1.47
2019-02-18T01:25:49.008Z,1.44
2019-02-18T01:27:57.240Z,1.42
2019-02-18T01:30:04.147Z,1.36
2019-02-18T01:32:11.057Z,1.35
2019-02-18T01:34:17.904Z,1.34
2019-02-18T01:36:25.011Z,1.33
2019-02-18T01:38:32.151Z,1.34
2019-02-18T01:40:39.380Z,1.32
2019-02-18T01:42:46.243Z,1.31
2019-02-18T01:44:54.262Z,1.27
2019-02-18T01:47:02.250Z,1.25
2019-02-18T01:49:10.377Z,1.22
2019-02-18T01:51:17.847Z,1.20
2019-02-18T01:53:25.595Z,1.19
2019-02-18T01:55:32.345Z,1.17
2019-02-18T01:57:39.669Z,1.18
2019-02-18T01:59:46.857Z,1.17
2019-02-18T02:01:54.378Z,1.15
2019-02-18T02:04:02.967Z,1.13
2019-02-18T02:06:10.230Z,1.12
2019-02-18T02:08:17.518Z,1.11
2019-02-18T02:10:24.836Z,1.10
2019-02-18T02:12:33.963Z,1.09
2019-02-18T02:14:41.714Z,1.09
2019-02-18T02:16:48.511Z,1.10
2019-02-18T02:18:55.518Z,1.09
2019-02-18T02:21:02.368Z,1.07
2019-02-18T02:23:09.353Z,1.08
2019-02-18T02:25:16.014Z,1.09
2019-02-18T02:27:22.803Z,1.07
2019-02-18T02:29:30.045Z,1.07
2019-02-18T02:31:36.805Z,1.07
2019-02-18T02:33:43.731Z,1.07
2019-02-18T02:35:50.708Z,1.09
2019-02-18T02:38:07.360Z,1.08
2019-02-18T02:40:09.868Z,1.08
2019-02-18T02:42:17.462Z,1.07
2019-02-18T02:44:24.821Z,1.07
2019-02-18T02:46:32.504Z,1.06
2019-02-18T02:48:39.772Z,1.05
2019-02-18T02:50:49.571Z,1.04
2019-02-18T02:52:57.183Z,1.02
2019-02-18T02:55:05.206Z,1.01
2019-02-18T02:57:12.163Z,0.99
2019-02-18T02:59:18.994Z,0.99
2019-02-18T03:01:25.916Z,0.99
2019-02-18T03:03:32.681Z,0.99
2019-02-18T03:05:41.194Z,0.99
2019-02-18T03:07:48.538Z,0.97
2019-02-18T03:09:55.443Z,0.96
2019-02-18T03:12:02.627Z,0.97
2019-02-18T03:14:09.349Z,0.97
2019-02-18T03:16:16.616Z,0.95
2019-02-18T03:18:23.761Z,0.93
2019-02-18T03:20:30.649Z,0.92
2019-02-18T03:22:37.590Z,0.92
2019-02-18T03:25:21.881Z,0.91
2019-02-18T03:27:29.220Z,0.91
2019-02-18T03:29:52.430Z,0.89
2019-02-18T03:32:00.534Z,0.90
2019-02-18T03:34:17.494Z,0.89
2019-02-18T03:36:24.302Z,0.87
2019-02-18T03:38:32.120Z,0.89
2019-02-18T03:40:39.198Z,0.89
2019-02-18T03:42:45.883Z,0.87
2019-02-18T03:44:52.741Z,0.87
2019-02-18T03:46:59.655Z,0.84
2019-02-18T03:49:07.395Z,0.82
2019-02-18T03:51:15.071Z,0.82
2019-02-18T03:53:21.974Z,0.81
2019-02-18T03:55:30.001Z,0.79
2019-02-18T03:57:37.656Z,0.78
2019-02-18T03:59:45.175Z,0.77
2019-02-18T04:01:52.632Z,0.76
2019-02-18T04:03:59.810Z,0.77
2019-02-18T04:06:06.788Z,0.76
2019-02-18T04:08:13.658Z,0.76
2019-02-18T04:10:21.106Z,0.78
2019-02-18T04:12:28.586Z,0.78
2019-02-18T04:14:36.642Z,0.79
2019-02-18T04:16:43.786Z,0.80
2019-02-18T04:18:51.905Z,0.84
2019-02-18T04:20:58.924Z,0.85
2019-02-18T04:23:05.992Z,0.88
2019-02-18T04:25:13.165Z,0.88
2019-02-18T04:27:20.428Z,0.91
2019-02-18T04:29:29.058Z,0.90
2019-02-18T04:31:36.039Z,0.90
2019-02-18T04:33:43.302Z,0.90
2019-02-18T04:35:49.951Z,0.89
2019-02-18T04:37:57.273Z,0.85
2019-02-18T04:40:05.041Z,0.85
2019-02-18T04:42:17.580Z,0.84
2019-02-18T04:44:24.568Z,0.82
2019-02-18T04:46:31.512Z,0.83
2019-02-18T04:48:38.872Z,0.83
2019-02-18T04:50:45.892Z,0.81
2019-02-18T04:52:53.120Z,0.81
2019-02-18T04:55:00.103Z,0.79
2019-02-18T04:57:07.034Z,0.79
2019-02-18T04:59:13.895Z,0.82
2019-02-18T05:01:20.909Z,0.82
2019-02-18T05:03:28.398Z,0.79
2019-02-18T05:05:36.260Z,0.81
2019-02-18T05:07:43.398Z,0.84
2019-02-18T05:09:50.641Z,0.86
2019-02-18T05:11:57.721Z,0.90
2019-02-18T05:14:05.018Z,0.91
2019-02-18T05:16:12.338Z,0.91
2019-02-18T05:18:19.170Z,0.93
2019-02-18T05:20:26.141Z,0.98
2019-02-18T05:22:33.589Z,0.99
2019-02-18T05:24:40.286Z,1.04
2019-02-18T05:26:48.803Z,1.08
2019-02-18T05:28:55.585Z,1.12
2019-02-18T05:31:02.697Z,1.12
2019-02-18T05:33:10.015Z,1.13
2019-02-18T05:35:17.221Z,1.14
2019-02-18T05:37:23.936Z,1.16
2019-02-18T05:39:30.615Z,1.16
2019-02-18T05:41:38.028Z,1.17
2019-02-18T05:43:44.776Z,1.24
2019-02-18T05:45:51.726Z,1.51
2019-02-18T05:47:58.468Z,1.48
2019-02-18T05:50:05.662Z,1.67
2019-02-18T05:52:12.417Z,1.86
2019-02-18T05:54:19.824Z,1.74
2019-02-18T05:56:27.316Z,1.65
2019-02-18T05:58:34.293Z,1.65
2019-02-18T06:00:41.341Z,1.57
2019-02-18T06:02:48.242Z,1.62
2019-02-18T06:04:58.532Z,1.70
2019-02-18T06:07:08.106Z,1.74
2019-02-18T06:09:14.913Z,1.82
2019-02-18T06:11:21.974Z,1.84
2019-02-18T06:13:29.206Z,1.87
2019-02-18T06:15:36.545Z,1.87
2019-02-18T06:17:43.784Z,1.89
2019-02-18T06:19:51.211Z,1.84
2019-02-18T06:21:58.351Z,1.73
2019-02-18T06:24:05.533Z,1.73
2019-02-18T06:26:12.778Z,1.66
2019-02-18T06:28:19.985Z,1.62
2019-02-18T06:30:27.015Z,1.49
2019-02-18T06:32:33.585Z,1.40
2019-02-18T06:34:40.496Z,1.41
2019-02-18T06:36:47.566Z,1.38
2019-02-18T06:38:54.416Z,1.34
2019-02-18T06:41:01.223Z,1.33
2019-02-18T06:43:08.518Z,1.30
2019-02-18T06:45:33.895Z,1.28
2019-02-18T06:47:41.130Z,1.26
2019-02-18T06:49:48.587Z,1.26
2019-02-18T06:51:55.376Z,1.23
2019-02-18T06:54:03.885Z,1.25
2019-02-18T06:56:10.744Z,1.23
2019-02-18T06:58:25.651Z,1.22
2019-02-18T07:00:41.057Z,1.21
2019-02-18T07:02:49.685Z,1.17
2019-02-18T07:05:10.857Z,1.18
2019-02-18T07:07:25.233Z,1.28
2019-02-18T07:09:34.025Z,1.36
2019-02-18T07:11:51.667Z,1.39
2019-02-18T07:13:58.654Z,1.50
2019-02-18T07:16:05.638Z,1.56
2019-02-18T07:18:13.015Z,1.63
2019-02-18T07:20:20.655Z,1.73
2019-02-18T07:22:27.586Z,1.79
2019-02-18T07:24:34.838Z,1.80
2019-02-18T07:26:43.018Z,1.91
2019-02-18T07:28:50.211Z,1.95
2019-02-18T07:30:58.656Z,2.00
2019-02-18T07:33:05.635Z,2.37
2019-02-18T07:35:13.005Z,2.35
2019-02-18T07:37:20.226Z,2.47
2019-02-18T07:39:27.455Z,2.37
2019-02-18T07:41:34.376Z,2.34
2019-02-18T07:43:41.485Z,2.57
2019-02-18T07:45:49.335Z,2.52
2019-02-18T07:47:55.996Z,2.49
2019-02-18T07:50:03.405Z,2.49
2019-02-18T07:52:10.895Z,2.71
2019-02-18T07:54:18.180Z,3.01
2019-02-18T07:56:24.969Z,3.20
2019-02-18T07:58:32.115Z,3.07
2019-02-18T08:00:39.383Z,3.05
2019-02-18T08:02:46.934Z,2.98
2019-02-18T08:04:55.985Z,2.96
2019-02-18T08:07:02.906Z,2.93
2019-02-18T08:09:09.915Z,2.98
2019-02-18T08:11:16.773Z,3.10
2019-02-18T08:13:23.927Z,3.12
2019-02-18T08:15:30.792Z,3.16
2019-02-18T08:17:38.402Z,3.20
2019-02-18T08:19:45.336Z,3.33
2019-02-18T08:21:52.053Z,3.29
2019-02-18T08:24:00.321Z,3.40
2019-02-18T08:26:07.321Z,3.50
2019-02-18T08:28:14.480Z,3.65
2019-02-18T08:30:21.294Z,3.74
2019-02-18T08:32:28.500Z,3.76
2019-02-18T08:34:35.465Z,3.64
2019-02-18T08:36:42.527Z,3.49
2019-02-18T08:38:49.406Z,3.48
2019-02-18T08:40:56.287Z,3.54
2019-02-18T08:43:03.116Z,3.73
2019-02-18T08:45:13.085Z,3.89
2019-02-18T08:47:19.845Z,4.10
2019-02-18T08:49:27.335Z,4.13
2019-02-18T08:51:36.086Z,4.22
2019-02-18T08:53:42.855Z,4.31
2019-02-18T08:55:50.346Z,4.49
2019-02-18T08:57:57.171Z,4.58
2019-02-18T09:00:05.275Z,4.58
2019-02-18T09:02:12.878Z,4.66
2019-02-18T09:04:19.672Z,4.80
2019-02-18T09:06:26.777Z,4.82
2019-02-18T09:08:33.700Z,4.83
2019-02-18T09:10:40.786Z,5.00
2019-02-18T09:12:47.874Z,5.09
2019-02-18T09:14:54.904Z,5.21
2019-02-18T09:17:01.614Z,5.36
2019-02-18T09:19:08.656Z,5.22
2019-02-18T09:21:15.883Z,5.29
2019-02-18T09:23:24.545Z,5.27
2019-02-18T09:25:43.551Z,5.29
2019-02-18T09:27:51.548Z,5.36
2019-02-18T09:29:58.296Z,5.39
2019-02-18T09:32:05.350Z,5.40
2019-02-18T09:34:12.825Z,5.50
2019-02-18T09:36:21.433Z,5.59
2019-02-18T09:38:29.051Z,5.69
2019-02-18T09:40:44.354Z,5.70
2019-02-18T09:42:44.645Z,5.69
2019-02-18T09:44:52.654Z,5.76
2019-02-18T09:46:59.493Z,5.84
2019-02-18T09:49:06.597Z,5.91
2019-02-18T09:51:14.126Z,5.98
2019-02-18T09:53:21.177Z,6.01
2019-02-18T09:55:29.666Z,6.06
2019-02-18T09:57:36.553Z,6.15
2019-02-18T09:59:43.506Z,6.22
2019-02-18T10:01:50.433Z,6.25
2019-02-18T10:03:57.345Z,6.36
2019-02-18T10:06:04.520Z,6.48
2019-02-18T10:08:11.351Z,6.53
2019-02-18T10:10:18.516Z,6.67
2019-02-18T10:12:25.397Z,6.80
2019-02-18T10:14:34.401Z,6.88
2019-02-18T10:16:41.469Z,6.99
2019-02-18T10:18:48.426Z,7.07
2019-02-18T10:20:55.455Z,7.16
2019-02-18T10:23:02.452Z,7.25
2019-02-18T10:25:13.341Z,7.35
2019-02-18T10:27:20.926Z,7.43
2019-02-18T10:29:28.866Z,7.53
2019-02-18T10:31:35.906Z,7.61
2019-02-18T10:33:43.026Z,7.70
2019-02-18T10:35:50.104Z,7.84
2019-02-18T10:37:57.066Z,7.97
2019-02-18T10:40:04.822Z,8.22
2019-02-18T10:42:11.610Z,8.30
2019-02-18T10:44:18.498Z,8.52
2019-02-18T10:46:25.446Z,8.61
2019-02-18T10:48:32.586Z,8.67
2019-02-18T10:50:46.976Z,8.79
2019-02-18T10:52:54.216Z,8.83
2019-02-18T10:55:00.956Z,8.96
2019-02-18T10:57:08.226Z,9.04
2019-02-18T10:59:15.431Z,9.10
2019-02-18T11:01:22.551Z,9.11
2019-02-18T11:03:29.416Z,9.14
2019-02-18T11:05:36.646Z,9.20
2019-02-18T11:07:43.569Z,9.18
2019-02-18T11:09:50.814Z,9.18
2019-02-18T11:11:58.016Z,9.35
2019-02-18T11:14:06.061Z,9.49
2019-02-18T11:16:13.477Z,9.56
2019-02-18T11:18:20.363Z,9.68
2019-02-18T11:20:27.307Z,9.73
2019-02-18T11:22:34.335Z,9.80
2019-02-18T11:24:41.823Z,9.86
2019-02-18T11:26:48.636Z,9.89
2019-02-18T11:28:55.299Z,9.98
2019-02-18T11:31:03.579Z,10.01
2019-02-18T11:33:10.536Z,10.00
2019-02-18T11:35:17.500Z,9.98
2019-02-18T11:37:24.386Z,10.02
2019-02-18T11:39:32.497Z,10.04
2019-02-18T11:41:40.015Z,10.06
2019-02-18T11:43:47.111Z,10.13
2019-02-18T11:45:54.665Z,10.22
2019-02-18T11:48:04.826Z,10.27
2019-02-18T11:50:14.818Z,10.28
2019-02-18T11:52:21.777Z,10.32
2019-02-18T11:54:28.666Z,10.35
2019-02-18T11:56:35.817Z,10.38
2019-02-18T11:58:42.787Z,10.39
2019-02-18T12:00:49.699Z,10.41
2019-02-18T12:03:03.601Z,10.44
2019-02-18T12:05:05.967Z,10.45
2019-02-18T12:07:12.967Z,10.46
2019-02-18T12:09:20.044Z,10.49
2019-02-18T12:11:37.302Z,10.48
2019-02-18T12:13:36.305Z,10.51
2019-02-18T12:15:43.322Z,10.55
2019-02-18T12:17:50.160Z,10.57
2019-02-18T12:19:56.886Z,10.53
2019-02-18T12:22:03.765Z,10.56
2019-02-18T12:24:11.036Z,10.60
2019-02-18T12:26:18.072Z,10.61
2019-02-18T12:28:24.978Z,10.61
2019-02-18T12:30:32.671Z,10.63
2019-02-18T12:32:39.584Z,10.67
2019-02-18T12:34:47.356Z,10.63
2019-02-18T12:36:54.635Z,10.64
2019-02-18T12:39:01.824Z,10.60
2019-02-18T12:41:10.448Z,10.62
2019-02-18T12:43:20.781Z,10.70
2019-02-18T12:45:27.795Z,10.73
2019-02-18T12:47:34.809Z,10.71
2019-02-18T12:49:41.690Z,10.74
2019-02-18T12:51:49.395Z,10.79
2019-02-18T12:54:04.732Z,10.82
2019-02-18T12:56:05.275Z,10.83
2019-02-18T12:58:12.211Z,10.79
2019-02-18T13:00:20.366Z,10.77
2019-02-18T13:02:29.629Z,10.74
2019-02-18T13:04:36.733Z,10.75
2019-02-18T13:06:45.216Z,10.72
2019-02-18T13:08:52.357Z,10.67
2019-02-18T13:10:59.506Z,10.64
2019-02-18T13:13:07.095Z,10.63
2019-02-18T13:15:20.665Z,10.60
2019-02-18T13:17:27.703Z,10.53
2019-02-18T13:19:34.639Z,10.47
2019-02-18T13:21:42.016Z,10.44
2019-02-18T13:23:50.473Z,10.45
2019-02-18T13:25:57.542Z,10.47
2019-02-18T13:28:08.495Z,10.50
2019-02-18T13:30:21.976Z,10.50
2019-02-18T13:32:28.935Z,10.46
2019-02-18T13:34:35.814Z,10.45
2019-02-18T13:36:42.636Z,10.44
2019-02-18T13:38:49.832Z,10.48
2019-02-18T13:40:56.812Z,10.52
2019-02-18T13:43:03.742Z,10.52
2019-02-18T13:45:11.029Z,10.52
2019-02-18T13:47:17.937Z,10.56
2019-02-18T13:49:26.438Z,10.56
2019-02-18T13:51:35.253Z,10.56
2019-02-18T13:53:43.068Z,10.58
2019-02-18T13:55:49.919Z,10.57
2019-02-18T13:57:56.633Z,10.55
2019-02-18T14:00:06.556Z,10.52
2019-02-18T14:02:14.116Z,10.52
2019-02-18T14:04:22.485Z,10.51
2019-02-18T14:06:29.835Z,10.53
2019-02-18T14:08:36.626Z,10.51
2019-02-18T14:10:43.866Z,10.52
2019-02-18T14:12:50.868Z,10.52
2019-02-18T14:14:58.030Z,10.49
2019-02-18T14:17:05.175Z,10.49
2019-02-18T14:19:12.002Z,10.46
2019-02-18T14:21:18.936Z,10.47
2019-02-18T14:23:25.657Z,10.48
2019-02-18T14:25:33.169Z,10.44
2019-02-18T14:27:40.609Z,10.40
2019-02-18T14:29:47.777Z,10.40
2019-02-18T14:31:56.785Z,10.38
2019-02-18T14:34:04.075Z,10.40
2019-02-18T14:36:11.098Z,10.36
2019-02-18T14:38:18.099Z,10.31
2019-02-18T14:40:26.087Z,10.28
2019-02-18T14:42:33.674Z,10.26
2019-02-18T14:44:40.725Z,10.23
2019-02-18T14:46:47.697Z,10.18
2019-02-18T14:48:55.346Z,10.14
2019-02-18T14:51:02.515Z,10.10
2019-02-18T14:53:16.153Z,10.03
2019-02-18T14:55:23.704Z,9.97
2019-02-18T14:57:31.726Z,9.89
2019-02-18T14:59:39.116Z,9.82
2019-02-18T15:01:46.286Z,9.74
2019-02-18T15:03:53.712Z,9.69
2019-02-18T15:06:00.596Z,9.64
2019-02-18T15:08:07.458Z,9.61
2019-02-18T15:10:15.833Z,9.56
2019-02-18T15:12:23.232Z,9.52
2019-02-18T15:14:32.019Z,9.48
2019-02-18T15:16:39.429Z,9.42
2019-02-18T15:18:46.761Z,9.39
2019-02-18T15:20:53.710Z,9.32
2019-02-18T15:23:01.487Z,9.27
2019-02-18T15:25:12.120Z,9.23
2019-02-18T15:27:19.152Z,9.18
2019-02-18T15:29:26.126Z,9.13
2019-02-18T15:31:33.178Z,9.07
2019-02-18T15:33:39.865Z,9.00
2019-02-18T15:35:46.947Z,8.92
2019-02-18T15:37:53.982Z,8.87
2019-02-18T15:40:01.458Z,8.80
2019-02-18T15:42:08.821Z,8.72
2019-02-18T15:44:16.405Z,8.67
2019-02-18T15:46:23.906Z,8.59
2019-02-18T15:48:30.960Z,8.50
2019-02-18T15:52:51.607Z,8.42
2019-02-18T15:54:58.175Z,8.31
2019-02-18T15:57:05.655Z,8.28
2019-02-18T15:59:12.828Z,8.21
2019-02-18T16:01:20.025Z,8.12
2019-02-18T16:03:27.635Z,7.99
2019-02-18T16:05:35.112Z,7.94
2019-02-18T16:07:42.214Z,7.84
2019-02-18T16:09:49.235Z,7.78
2019-02-18T16:11:56.448Z,7.71
2019-02-18T16:14:03.673Z,7.66
2019-02-18T16:16:11.493Z,7.61
2019-02-18T16:18:18.212Z,7.57
2019-02-18T16:20:25.435Z,7.55
2019-02-18T16:22:32.711Z,7.50
2019-02-18T16:24:39.861Z,7.46
2019-02-18T16:26:47.027Z,7.43
2019-02-18T16:28:58.276Z,7.36
2019-02-18T16:31:05.864Z,7.33
2019-02-18T16:33:13.573Z,7.31
2019-02-18T16:35:20.834Z,7.25
2019-02-18T16:37:28.183Z,7.18
2019-02-18T16:39:35.205Z,7.13
2019-02-18T16:41:44.005Z,7.09
2019-02-18T16:43:51.936Z,7.03
2019-02-18T16:45:59.166Z,6.99
2019-02-18T16:48:26.936Z,7.01
2019-02-18T16:50:34.807Z,6.96
2019-02-18T16:52:42.256Z,6.89
2019-02-18T16:54:49.166Z,6.81
2019-02-18T16:56:55.986Z,6.77
2019-02-18T16:59:06.386Z,6.69
2019-02-18T17:01:13.528Z,6.64
2019-02-18T17:03:20.668Z,6.58
2019-02-18T17:05:28.104Z,6.55
2019-02-18T17:07:35.967Z,6.54
2019-02-18T17:09:43.177Z,6.50
2019-02-18T17:11:50.415Z,6.48
2019-02-18T17:13:57.348Z,6.47
2019-02-18T17:16:04.839Z,6.42
2019-02-18T17:18:12.637Z,6.39
2019-02-18T17:20:19.947Z,6.34
2019-02-18T17:22:27.814Z,6.27
2019-02-18T17:24:35.827Z,6.22
2019-02-18T17:26:43.264Z,6.20
2019-02-18T17:28:50.887Z,6.15
2019-02-18T17:30:58.229Z,6.13
2019-02-18T17:33:06.187Z,6.08
2019-02-18T17:35:15.817Z,6.04
2019-02-18T17:37:23.155Z,6.01
2019-02-18T17:39:30.916Z,6.00
2019-02-18T17:41:38.527Z,5.97
2019-02-18T17:43:45.878Z,5.95
2019-02-18T17:45:54.827Z,5.93
2019-02-18T17:48:02.096Z,5.91
2019-02-18T17:50:14.028Z,5.87
2019-02-18T17:52:21.324Z,5.82
2019-02-18T17:54:28.554Z,5.79
2019-02-18T17:56:35.947Z,5.74
2019-02-18T17:58:43.128Z,5.70
2019-02-18T18:00:51.884Z,5.67
2019-02-18T18:02:59.110Z,5.67
2019-02-18T18:05:07.519Z,5.61
2019-02-18T18:07:14.630Z,5.57
2019-02-18T18:09:21.820Z,5.53
2019-02-18T18:11:29.260Z,5.47
2019-02-18T18:13:36.749Z,5.45
2019-02-18T18:15:44.288Z,5.39
2019-02-18T18:17:51.457Z,5.36
2019-02-18T18:19:59.108Z,5.33
2019-02-18T18:22:06.607Z,5.31
2019-02-18T18:24:15.046Z,5.28
2019-02-18T18:26:22.376Z,5.27
2019-02-18T18:28:29.817Z,5.23
2019-02-18T18:30:37.348Z,5.25
2019-02-18T18:32:45.737Z,5.23
2019-02-18T18:34:54.984Z,5.20
2019-02-18T18:37:02.448Z,5.20
2019-02-18T18:39:09.519Z,5.20
2019-02-18T18:41:16.691Z,5.16
2019-02-18T18:43:24.127Z,5.12
2019-02-18T18:45:33.297Z,5.07
2019-02-18T18:47:41.017Z,5.04
2019-02-18T18:49:49.165Z,5.02
2019-02-18T18:51:57.014Z,4.99
2019-02-18T18:54:04.959Z,4.98
2019-02-18T18:56:12.884Z,4.97
2019-02-18T18:58:20.764Z,4.99
2019-02-18T19:00:28.542Z,4.95
2019-02-18T19:02:36.095Z,4.93
2019-02-18T19:04:43.444Z,4.93
2019-02-18T19:06:52.257Z,4.87
2019-02-18T19:08:59.795Z,4.87
2019-02-18T19:11:07.246Z,4.85
2019-02-18T19:13:14.644Z,4.81
2019-02-18T19:15:22.360Z,4.78
2019-02-18T19:17:29.945Z,4.73
2019-02-18T19:19:37.814Z,4.71
2019-02-18T19:21:45.429Z,4.70
2019-02-18T19:23:53.221Z,4.70
2019-02-18T19:26:01.462Z,4.66
2019-02-18T19:28:08.892Z,4.63
2019-02-18T19:30:26.523Z,4.60
2019-02-18T19:32:33.956Z,4.57
2019-02-18T19:34:41.488Z,4.53
2019-02-18T19:36:49.900Z,4.53
2019-02-18T19:38:57.518Z,4.50
2019-02-18T19:41:05.148Z,4.49
2019-02-18T19:43:12.464Z,4.46
2019-02-18T19:45:27.419Z,4.43
2019-02-18T19:47:34.818Z,4.40
2019-02-18T19:49:43.169Z,4.36
2019-02-18T19:51:51.379Z,4.32
2019-02-18T19:53:58.735Z,4.31
2019-02-18T19:56:06.012Z,4.28
2019-02-18T19:58:13.837Z,4.25
2019-02-18T20:00:22.498Z,4.26
2019-02-18T20:02:29.902Z,4.24
2019-02-18T20:04:37.169Z,4.18
2019-02-18T20:06:44.759Z,4.14
2019-02-18T20:08:52.330Z,4.10
2019-02-18T20:10:59.758Z,4.06
2019-02-18T20:13:07.186Z,4.02
2019-02-18T20:15:17.105Z,3.99
2019-02-18T20:17:24.455Z,3.97
2019-02-18T20:19:32.318Z,3.97
2019-02-18T20:21:40.518Z,3.93
2019-02-18T20:23:48.489Z,3.90
2019-02-18T20:25:55.760Z,3.87
2019-02-18T20:28:03.999Z,3.83
2019-02-18T20:30:15.686Z,3.81
2019-02-18T20:32:22.967Z,3.77
2019-02-18T20:34:30.469Z,3.75
2019-02-18T20:36:37.897Z,3.74
2019-02-18T20:38:45.138Z,3.73
2019-02-18T20:40:52.218Z,3.72
2019-02-18T20:43:00.025Z,3.68
2019-02-18T20:45:13.548Z,3.66
2019-02-18T20:47:22.417Z,3.65
2019-02-18T20:49:31.687Z,3.63
2019-02-18T20:51:39.227Z,3.60
2019-02-18T20:53:46.809Z,3.59
2019-02-18T20:55:54.287Z,3.56
2019-02-18T20:58:01.955Z,3.57
2019-02-18T21:00:19.502Z,3.59
2019-02-18T21:02:26.780Z,3.53
2019-02-18T21:04:34.013Z,3.52
2019-02-18T21:06:41.853Z,3.49
2019-02-18T21:08:49.963Z,3.49
2019-02-18T21:10:58.303Z,3.49
2019-02-18T21:13:06.074Z,3.44
2019-02-18T21:15:15.663Z,3.43
2019-02-18T21:17:23.053Z,3.39
2019-02-18T21:19:30.530Z,3.36
2019-02-18T21:21:39.473Z,3.33
2019-02-18T21:23:46.784Z,3.32
2019-02-18T21:25:54.184Z,3.35
2019-02-18T21:28:01.954Z,3.31
2019-02-18T21:30:18.073Z,3.31
2019-02-18T21:32:25.160Z,3.28
2019-02-18T21:34:32.837Z,3.26
2019-02-18T21:36:40.278Z,3.29
2019-02-18T21:38:47.636Z,3.27
2019-02-18T21:40:54.680Z,3.25
2019-02-18T21:43:02.106Z,3.19
2019-02-18T21:45:17.420Z,3.20
2019-02-18T21:47:25.166Z,3.14
2019-02-18T21:49:32.617Z,3.10
2019-02-18T21:51:40.186Z,3.05
2019-02-18T21:53:47.572Z,3.04
2019-02-18T21:55:54.473Z,3.04
2019-02-18T21:58:02.340Z,3.03
2019-02-18T22:00:15.257Z,3.04
2019-02-18T22:02:23.404Z,3.02
2019-02-18T22:04:30.707Z,2.99
2019-02-18T22:06:38.030Z,2.98
2019-02-18T22:08:45.363Z,2.96
2019-02-18T22:10:52.722Z,2.95
2019-02-18T22:13:00.526Z,2.90
2019-02-18T22:15:10.262Z,2.91
2019-02-18T22:17:17.449Z,2.87
2019-02-18T22:19:25.371Z,2.85
2019-02-18T22:21:32.482Z,2.82
2019-02-18T22:23:39.343Z,2.79
2019-02-18T22:25:46.985Z,2.76
2019-02-18T22:27:54.291Z,2.74
2019-02-18T22:30:01.479Z,2.71
2019-02-18T22:32:08.665Z,2.70
2019-02-18T22:34:16.410Z,2.67
2019-02-18T22:36:24.056Z,2.65
2019-02-18T22:38:31.376Z,2.61
2019-02-18T22:40:39.008Z,2.61
2019-02-18T22:42:46.195Z,2.62
2019-02-18T22:44:54.743Z,2.59
2019-02-18T22:47:01.599Z,2.55
2019-02-18T22:49:08.871Z,2.51
2019-02-18T22:51:16.415Z,2.45
2019-02-18T22:53:23.361Z,2.44
2019-02-18T22:55:30.346Z,2.41
2019-02-18T22:57:37.696Z,2.41
2019-02-18T22:59:45.978Z,2.40
2019-02-18T23:01:53.010Z,2.36
2019-02-18T23:04:00.112Z,2.33
2019-02-18T23:06:07.599Z,2.33
2019-02-18T23:08:14.360Z,2.31
2019-02-18T23:10:21.342Z,2.29
2019-02-18T23:12:28.722Z,2.26
2019-02-18T23:14:35.710Z,2.24
2019-02-18T23:16:43.204Z,2.22
2019-02-18T23:18:50.456Z,2.24
2019-02-18T23:20:57.858Z,2.22
2019-02-18T23:23:05.853Z,2.23
2019-02-18T23:25:12.920Z,2.19
2019-02-18T23:27:19.983Z,2.15
2019-02-18T23:29:26.892Z,2.13
2019-02-18T23:31:33.858Z,2.16
2019-02-18T23:33:41.024Z,2.12
2019-02-18T23:35:48.289Z,2.09
2019-02-18T23:37:55.521Z,2.06
2019-02-18T23:40:02.454Z,2.03
2019-02-18T23:42:09.323Z,2.03
2019-02-18T23:44:16.571Z,1.99
2019-02-18T23:46:24.061Z,1.97
2019-02-18T23:48:31.153Z,1.95
2019-02-18T23:50:38.082Z,1.95
2019-02-18T23:52:46.478Z,1.94
2019-02-18T23:54:54.957Z,1.89
2019-02-18T23:57:02.267Z,1.87
2019-02-18T23:59:09.604Z,1.89
